Time;durP1;ratioP1;P1;durP2;ratioP2;P2;SDS_P1;SDS_P2;PMS_P1;PMS_P2;Temp;Humidity;BMP_temperature;BMP_pressure;BME280_temperature;BME280_humidity;BME280_pressure;Samples;Min_cycle;Max_cycle;Signal;HPM_P1;HPM_P2
2022/10/02 00:02:15;;;;;;;9.83;8.63;;;13.60;99.90;;;;;;1951654;72;22128;-90
2022/10/02 00:05:11;;;;;;;12.68;9.55;;;13.60;99.90;;;;;;1902971;75;21219;-91
2022/10/02 00:08:06;;;;;;;10.48;9.15;;;13.60;99.90;;;;;;1884114;75;21161;-90
2022/10/02 00:11:00;;;;;;;10.53;8.68;;;13.60;99.90;;;;;;1893020;75;21044;-90
2022/10/02 00:13:55;;;;;;;9.20;8.23;;;13.50;99.90;;;;;;1898691;75;21066;-90
2022/10/02 00:16:48;;;;;;;10.28;8.58;;;13.60;99.90;;;;;;1892901;75;21121;-91
2022/10/02 00:19:42;;;;;;;10.48;8.58;;;13.60;99.90;;;;;;1885589;75;21136;-90
2022/10/02 00:22:43;;;;;;;11.80;9.00;;;13.60;99.90;;;;;;1891188;75;21136;-89
2022/10/02 00:28:25;;;;;;;10.00;8.50;;;13.60;99.90;;;;;;1958036;72;22162;-90
2022/10/02 00:31:28;;;;;;;8.73;7.83;;;13.50;99.90;;;;;;1926810;73;21058;-89
2022/10/02 00:34:25;;;;;;;9.48;7.70;;;13.50;99.90;;;;;;1935544;73;21086;-89
2022/10/02 00:40:03;;;;;;;9.33;8.20;;;13.50;99.90;;;;;;1933879;72;22137;-89
2022/10/02 00:43:05;;;;;;;8.20;7.40;;;13.50;99.90;;;;;;1902503;74;21062;-92
2022/10/02 00:46:23;;;;;;;8.43;7.22;;;13.40;99.90;;;;;;1892275;75;21127;-91
2022/10/02 00:49:49;;;;;;;9.08;8.08;;;13.40;99.90;;;;;;1884844;75;21113;-90
2022/10/02 00:52:48;;;;;;;8.93;7.83;;;13.40;99.90;;;;;;1883029;75;21055;-91
2022/10/02 00:59:21;;;;;;;8.65;7.80;;;13.40;99.90;;;;;;2032715;69;22172;-89
2022/10/02 01:04:55;;;;;;;11.15;8.80;;;13.40;99.90;;;;;;1947232;72;22609;-92
2022/10/02 01:07:50;;;;;;;8.50;7.60;;;13.40;99.90;;;;;;1941880;73;21054;-91
2022/10/02 01:15:59;;;;;;;11.05;8.08;;;13.30;99.90;;;;;;1994969;71;22550;-89
2022/10/02 01:18:50;;;;;;;9.13;7.83;;;13.40;99.90;;;;;;1953191;73;21152;-90
2022/10/02 01:21:45;;;;;;;9.00;8.03;;;13.40;99.90;;;;;;2008032;70;21121;-89
2022/10/02 01:24:38;;;;;;;8.30;7.50;;;13.40;99.90;;;;;;1995490;71;21037;-90
2022/10/02 01:27:31;;;;;;;9.40;7.47;;;13.50;99.90;;;;;;2015903;70;21010;-90
2022/10/02 01:30:24;;;;;;;9.68;7.85;;;13.50;99.90;;;;;;1995765;70;21199;-89
2022/10/02 01:33:16;;;;;;;10.03;8.05;;;13.40;99.90;;;;;;2006051;70;21128;-90
2022/10/02 01:38:48;;;;;;;8.83;7.70;;;13.40;99.90;;;;;;1928013;72;22207;-90
2022/10/02 01:41:43;;;;;;;8.50;7.45;;;13.40;99.90;;;;;;1897706;75;21059;-91
2022/10/02 01:44:35;;;;;;;8.80;7.28;;;13.40;99.90;;;;;;1913457;75;21091;-90
2022/10/02 01:47:30;;;;;;;8.75;7.85;;;13.30;99.90;;;;;;1912116;75;21511;-89
2022/10/02 01:53:09;;;;;;;9.60;8.60;;;13.40;99.90;;;;;;1946818;72;22158;-89
2022/10/02 01:56:05;;;;;;;9.13;8.23;;;13.40;99.90;;;;;;1893656;75;21082;-89
2022/10/02 02:01:45;;;;;;;9.30;8.30;;;13.40;99.90;;;;;;1935856;72;22346;-90
2022/10/02 02:04:41;;;;;;;9.25;8.35;;;13.50;99.90;;;;;;1911234;75;21060;-91
2022/10/02 02:07:35;;;;;;;9.25;8.25;;;13.50;99.90;;;;;;1905212;75;21086;-90
2022/10/02 02:13:50;;;;;;;9.18;8.30;;;13.40;99.90;;;;;;2073931;68;22068;-89
2022/10/02 02:16:47;;;;;;;9.33;8.23;;;13.50;99.90;;;;;;2022319;70;21078;-90
2022/10/02 02:22:35;;;;;;;8.93;8.03;;;13.40;99.90;;;;;;1949738;72;22208;-89
2022/10/02 02:25:30;;;;;;;9.65;8.65;;;13.40;99.90;;;;;;1917823;73;21071;-90
2022/10/02 02:28:23;;;;;;;8.75;7.85;;;13.40;99.90;;;;;;1917671;73;21067;-90
2022/10/02 02:31:18;;;;;;;9.33;8.43;;;13.40;99.90;;;;;;1929442;73;21163;-90
2022/10/02 02:34:12;;;;;;;9.85;8.45;;;13.40;99.90;;;;;;1917553;75;21109;-89
2022/10/02 02:37:07;;;;;;;8.43;7.42;;;13.30;99.90;;;;;;1917572;75;21179;-89
2022/10/02 02:40:04;;;;;;;10.80;7.85;;;13.30;99.90;;;;;;1917887;75;21115;-90
2022/10/02 02:42:58;;;;;;;9.68;7.78;;;13.30;99.90;;;;;;1917806;75;21146;-89
2022/10/02 02:45:53;;;;;;;9.28;8.20;;;13.30;99.90;;;;;;1918702;73;21087;-90
2022/10/02 02:48:48;;;;;;;8.65;7.72;;;13.20;99.90;;;;;;1931119;73;21117;-89
2022/10/02 02:51:43;;;;;;;8.65;7.78;;;13.20;99.90;;;;;;1928871;73;21160;-91
2022/10/02 02:57:19;;;;;;;11.43;8.80;;;13.20;99.90;;;;;;1948966;72;22131;-89
2022/10/02 03:00:14;;;;;;;9.63;8.08;;;13.20;99.90;;;;;;1918521;75;21095;-89
2022/10/02 03:03:06;;;;;;;9.85;8.08;;;13.20;99.90;;;;;;1915530;75;21066;-89
2022/10/02 03:06:01;;;;;;;9.40;8.40;;;13.20;99.90;;;;;;1900208;75;21366;-89
2022/10/02 03:11:42;;;;;;;11.48;8.78;;;13.10;99.90;;;;;;1920446;72;22223;-88
2022/10/02 03:14:55;;;;;;;9.85;8.25;;;13.10;99.90;;;;;;1912255;74;21070;-89
2022/10/02 03:18:00;;;;;;;10.18;8.88;;;13.10;99.90;;;;;;1897942;75;21624;-89
2022/10/02 03:20:56;;;;;;;9.15;8.05;;;13.10;99.90;;;;;;1906881;75;21172;-90
2022/10/02 03:23:56;;;;;;;9.60;7.97;;;13.10;99.90;;;;;;1874446;75;21513;-89
2022/10/02 03:26:51;;;;;;;8.83;7.92;;;13.00;99.90;;;;;;1875576;75;21121;-89
2022/10/02 03:32:56;;;;;;;11.35;9.60;;;13.00;99.90;;;;;;1962893;71;22192;-88
2022/10/02 03:35:49;;;;;;;11.03;9.83;;;13.10;99.90;;;;;;1921605;73;21081;-90
2022/10/02 03:38:42;;;;;;;11.95;9.18;;;13.10;99.90;;;;;;2022797;70;21022;-90
2022/10/02 03:41:34;;;;;;;10.78;9.60;;;13.10;99.90;;;;;;2018971;70;21096;-89
2022/10/02 03:44:26;;;;;;;11.03;9.93;;;13.10;99.90;;;;;;2013401;70;21031;-91
2022/10/02 03:47:17;;;;;;;11.05;9.95;;;13.20;99.90;;;;;;2021265;69;21078;-89
2022/10/02 03:50:12;;;;;;;11.75;10.38;;;13.20;99.90;;;;;;2008938;70;21071;-89
2022/10/02 03:53:11;;;;;;;12.53;10.25;;;13.20;99.90;;;;;;1995181;70;21026;-89
2022/10/02 03:56:07;;;;;;;12.23;10.90;;;13.20;99.90;;;;;;2021462;70;21112;-90
2022/10/02 03:59:01;;;;;;;13.08;10.82;;;13.20;99.90;;;;;;2019918;70;21120;-90
2022/10/02 04:04:37;;;;;;;12.93;11.53;;;13.10;99.90;;;;;;1930671;72;22150;-89
2022/10/02 04:07:33;;;;;;;14.80;11.68;;;13.10;99.90;;;;;;1888099;74;21058;-90
2022/10/02 04:13:26;;;;;;;17.45;14.55;;;13.10;99.90;;;;;;1941430;72;22224;-89
2022/10/02 04:16:21;;;;;;;17.27;14.28;;;13.00;99.90;;;;;;1916701;75;21090;-89
2022/10/02 04:19:16;;;;;;;19.85;14.43;;;13.00;99.90;;;;;;1926146;73;21577;-89
2022/10/02 04:22:13;;;;;;;19.80;14.33;;;13.00;99.90;;;;;;1925675;74;21135;-89
2022/10/02 04:25:08;;;;;;;18.25;14.68;;;12.90;99.90;;;;;;1917655;75;21054;-88
2022/10/02 04:28:03;;;;;;;15.58;12.93;;;12.90;99.90;;;;;;1938483;73;21105;-90
2022/10/02 04:33:40;;;;;;;22.37;17.62;;;13.00;99.90;;;;;;1926901;72;28059;-89
2022/10/02 04:39:30;;;;;;;18.20;14.30;;;13.10;99.90;;;;;;1962243;72;22111;-89
2022/10/02 04:42:30;;;;;;;18.70;15.10;;;13.00;99.90;;;;;;1937339;74;21103;-89
2022/10/02 04:45:36;;;;;;;15.90;13.38;;;13.00;99.90;;;;;;1911860;74;21144;-88
2022/10/02 04:49:02;;;;;;;15.77;13.37;;;12.90;99.90;;;;;;1909766;74;21044;-89
2022/10/02 04:52:04;;;;;;;18.75;15.08;;;13.00;99.90;;;;;;1916773;74;21040;-90
2022/10/02 04:55:05;;;;;;;19.50;15.70;;;13.00;99.90;;;;;;1934839;74;21084;-90
2022/10/02 04:58:29;;;;;;;19.23;13.75;;;13.00;99.90;;;;;;1927731;74;21041;-89
2022/10/02 05:01:28;;;;;;;16.35;13.20;;;13.00;99.90;;;;;;1931716;74;21176;-90
2022/10/02 05:04:25;;;;;;;;;;;13.00;99.90;;;;;;1941921;74;21569;-90
2022/10/02 05:07:33;;;;;;;17.48;12.47;;;13.00;99.90;;;;;;1924089;74;20110;-89
2022/10/02 05:10:46;;;;;;;;;;;12.90;99.90;;;;;;1924958;74;21091;-89
2022/10/02 05:13:58;;;;;;;12.47;10.95;;;12.90;99.90;;;;;;1904938;75;20237;-89
2022/10/02 05:17:04;;;;;;;13.28;11.63;;;12.90;99.90;;;;;;1921038;74;21107;-90
2022/10/02 05:20:10;;;;;;;13.58;12.05;;;12.90;99.90;;;;;;1918971;74;21558;-89
2022/10/02 05:23:10;;;;;;;12.80;10.90;;;12.90;99.90;;;;;;1927417;74;21091;-90
2022/10/02 05:26:27;;;;;;;12.55;11.25;;;12.80;99.90;;;;;;1913680;74;21060;-89
2022/10/02 05:29:31;;;;;;;11.85;10.55;;;12.80;99.90;;;;;;1930291;74;21087;-90
2022/10/02 05:32:31;;;;;;;12.30;10.32;;;12.80;99.90;;;;;;1912037;74;21059;-90
2022/10/02 05:35:33;;;;;;;11.50;10.30;;;12.80;99.90;;;;;;1939016;74;21079;-90
2022/10/02 05:38:30;;;;;;;12.35;10.78;;;12.90;99.90;;;;;;1915915;74;21179;-90
2022/10/02 05:41:24;;;;;;;12.70;11.25;;;12.90;99.90;;;;;;1924686;74;21571;-90
2022/10/02 05:44:20;;;;;;;11.25;10.05;;;13.00;99.90;;;;;;1907994;74;21061;-89
2022/10/02 05:47:16;;;;;;;12.45;11.15;;;13.00;99.90;;;;;;1905609;75;21079;-90
2022/10/02 05:50:14;;;;;;;11.95;10.75;;;13.00;99.90;;;;;;1927663;74;21207;-87
2022/10/02 05:53:10;;;;;;;13.57;11.53;;;13.00;99.90;;;;;;1923701;74;21618;-87
2022/10/02 05:58:55;;;;;;;14.50;10.95;;;13.10;99.90;;;;;;1961713;72;22198;-87
2022/10/02 06:01:49;;;;;;;12.60;10.72;;;13.10;99.90;;;;;;1926917;73;21175;-87
2022/10/02 06:04:45;;;;;;;12.55;11.25;;;13.20;99.90;;;;;;1923815;73;21271;-86
2022/10/02 06:07:36;;;;;;;12.40;10.70;;;13.20;99.90;;;;;;1917685;75;21097;-86
2022/10/02 06:10:32;;;;;;;12.70;11.22;;;13.30;99.90;;;;;;1876168;76;21138;-87
2022/10/02 06:13:27;;;;;;;13.25;11.48;;;13.30;99.90;;;;;;1917677;75;21200;-87
2022/10/02 06:16:22;;;;;;;12.00;10.80;;;13.30;99.90;;;;;;1917741;75;21098;-87
2022/10/02 06:19:16;;;;;;;12.82;11.45;;;13.40;99.90;;;;;;1917600;75;21087;-87
2022/10/02 06:22:11;;;;;;;14.30;12.03;;;13.40;99.90;;;;;;1917800;75;21214;-86
2022/10/02 06:25:07;;;;;;;14.65;11.83;;;13.40;99.90;;;;;;1917651;74;21112;-86
2022/10/02 06:28:02;;;;;;;13.45;12.05;;;13.50;99.90;;;;;;1917791;75;21088;-87
2022/10/02 06:30:57;;;;;;;13.35;11.95;;;13.50;99.90;;;;;;1917705;75;21113;-87
2022/10/02 06:33:50;;;;;;;13.43;12.00;;;13.50;99.90;;;;;;1919818;75;21078;-86
2022/10/02 06:37:19;;;;;;;13.18;11.70;;;13.60;99.90;;;;;;1919073;75;21146;-87
2022/10/02 06:43:41;;;;;;;13.45;11.65;;;13.70;99.90;;;;;;1942775;72;20190;-86
2022/10/02 06:46:38;;;;;;;12.05;10.80;;;13.80;99.90;;;;;;1874214;75;21106;-87
2022/10/02 06:49:38;;;;;;;12.75;10.80;;;13.90;99.90;;;;;;1887429;75;21231;-87
2022/10/02 06:52:35;;;;;;;12.75;11.48;;;14.00;99.90;;;;;;1887956;75;21555;-86
2022/10/02 06:55:35;;;;;;;13.28;11.12;;;14.10;99.90;;;;;;1884560;75;21530;-87
2022/10/02 06:58:41;;;;;;;11.28;10.08;;;14.10;99.90;;;;;;1884016;75;21052;-86
2022/10/02 07:01:38;;;;;;;10.45;9.35;;;14.10;99.90;;;;;;1883718;75;21153;-75
2022/10/02 07:04:41;;;;;;;10.32;8.93;;;14.20;99.90;;;;;;1883374;75;21111;-75
2022/10/02 07:07:41;;;;;;;11.12;9.00;;;14.30;99.90;;;;;;1875087;75;21101;-76
2022/10/02 07:13:29;;;;;;;10.32;9.23;;;14.30;99.90;;;;;;1958136;72;22497;-75
2022/10/02 07:16:27;;;;;;;9.53;8.58;;;14.30;99.90;;;;;;1887224;75;21165;-75
2022/10/02 07:22:59;;;;;;;9.10;8.20;;;14.50;99.90;;;;;;1966520;72;22354;-78
2022/10/02 07:29:07;;;;;;;9.45;8.45;;;14.60;99.90;;;;;;1933986;72;22303;-77
2022/10/02 07:32:16;;;;;;;8.75;7.95;;;14.70;99.90;;;;;;1898927;75;21114;-79
2022/10/02 07:35:24;;;;;;;8.90;8.00;;;14.80;99.90;;;;;;1877414;76;21184;-78
2022/10/02 07:38:44;;;;;;;8.78;7.87;;;14.90;99.90;;;;;;1877624;76;21569;-78
2022/10/02 07:41:59;;;;;;;9.08;8.18;;;14.90;99.90;;;;;;1886280;75;21546;-77
2022/10/02 07:48:26;;;;;;;10.05;9.05;;;15.10;99.90;;;;;;1945578;72;22224;-77
2022/10/02 07:54:55;;;;;;;11.48;10.28;;;15.30;99.90;;;;;;1902396;75;21058;-77
2022/10/02 08:00:34;;;;;;;10.88;9.78;;;15.40;99.90;;;;;;1938293;72;22144;-77
2022/10/02 08:03:30;;;;;;;10.50;9.38;;;15.50;99.90;;;;;;1895493;75;21148;-77
2022/10/02 08:06:21;;;;;;;9.70;8.70;;;15.50;99.90;;;;;;1899789;75;21117;-77
2022/10/02 08:09:16;;;;;;;9.33;8.40;;;15.50;99.90;;;;;;1902026;75;21098;-77
2022/10/02 08:12:10;;;;;;;10.43;8.50;;;15.50;99.90;;;;;;1901145;75;21211;-76
2022/10/02 08:15:03;;;;;;;9.10;8.00;;;15.50;99.90;;;;;;1902912;75;21125;-77
2022/10/02 08:17:57;;;;;;;9.25;8.13;;;15.50;99.90;;;;;;1888594;75;21526;-76
2022/10/02 08:20:50;;;;;;;8.13;7.25;;;15.60;99.90;;;;;;1889533;75;21865;-76
2022/10/02 08:23:47;;;;;;;7.78;6.97;;;15.80;99.90;;;;;;1899845;75;21503;-77
2022/10/02 08:26:42;;;;;;;7.97;7.17;;;15.90;99.90;;;;;;1885009;75;21051;-76
2022/10/02 08:29:39;;;;;;;5.92;5.33;;;16.00;99.90;;;;;;1888973;75;21617;-75
2022/10/02 08:32:32;;;;;;;6.03;5.42;;;16.10;99.90;;;;;;1890657;75;21051;-76
2022/10/02 08:35:28;;;;;;;9.28;7.47;;;16.20;99.90;;;;;;1905511;75;21121;-76
2022/10/02 08:38:32;;;;;;;11.25;9.00;;;16.30;99.90;;;;;;1895041;75;21063;-76
2022/10/02 08:41:50;;;;;;;11.73;8.93;;;16.40;99.90;;;;;;1890830;75;21105;-77
2022/10/02 08:45:25;;;;;;;9.88;8.88;;;16.30;99.90;;;;;;1902118;75;21105;-76
2022/10/02 08:48:49;;;;;;;10.30;9.08;;;16.30;99.90;;;;;;1904420;75;21115;-77
2022/10/02 08:52:28;;;;;;;9.10;8.20;;;16.50;99.90;;;;;;1898141;75;21287;-76
2022/10/02 08:55:45;;;;;;;8.90;7.67;;;16.60;99.90;;;;;;1894976;75;21099;-76
2022/10/02 08:59:06;;;;;;;8.58;7.78;;;16.70;99.90;;;;;;1908047;75;21177;-76
2022/10/02 09:06:06;;;;;;;11.03;8.15;;;16.80;99.90;;;;;;1944549;72;22224;-75
2022/10/02 09:09:38;;;;;;;10.85;7.47;;;17.00;99.90;;;;;;1907705;75;21090;-75
2022/10/02 09:13:07;;;;;;;7.70;6.87;;;16.80;99.90;;;;;;1881536;75;21886;-76
2022/10/02 09:16:07;;;;;;;9.38;7.35;;;16.80;99.90;;;;;;1906767;75;21241;-76
2022/10/02 09:19:03;;;;;;;7.87;6.75;;;16.80;99.90;;;;;;1892066;75;21117;-76
2022/10/02 09:21:57;;;;;;;11.40;7.12;;;16.80;99.90;;;;;;1885439;75;21067;-76
2022/10/02 09:25:17;;;;;;;7.78;6.97;;;16.80;99.90;;;;;;1908451;75;21097;-76
2022/10/02 09:28:33;;;;;;;8.78;7.80;;;16.90;99.90;;;;;;1892060;75;21515;-76
2022/10/02 09:34:55;;;;;;;7.70;6.90;;;17.00;99.90;;;;;;1946308;72;22154;-75
2022/10/02 09:41:23;;;;;;;8.73;6.65;;;17.10;99.90;;;;;;1939694;72;22114;-77
2022/10/02 09:44:38;;;;;;;6.58;5.95;;;17.10;99.90;;;;;;1891842;75;21109;-77
2022/10/02 09:51:13;;;;;;;6.53;5.92;;;17.20;99.90;;;;;;1925958;72;22212;-75
2022/10/02 09:54:38;;;;;;;6.47;5.87;;;17.30;99.90;;;;;;1893443;75;21120;-76
2022/10/02 10:01:09;;;;;;;6.92;6.03;;;17.50;99.90;;;;;;1956276;72;22292;-75
2022/10/02 10:04:45;;;;;;;5.95;5.45;;;17.60;99.90;;;;;;1925602;73;21062;-76
2022/10/02 10:08:19;;;;;;;7.12;6.53;;;17.60;99.90;;;;;;1917216;73;21179;-76
2022/10/02 10:12:04;;;;;;;7.12;6.42;;;17.80;99.90;;;;;;1834696;78;21210;-76
2022/10/02 10:15:42;;;;;;;8.15;7.35;;;17.90;99.90;;;;;;1813518;78;21200;-76
2022/10/02 10:19:06;;;;;;;9.05;8.18;;;17.90;99.90;;;;;;1921111;73;21074;-75
2022/10/02 10:25:41;;;;;;;6.35;4.70;;;17.90;99.90;;;;;;1957439;72;22184;-76
2022/10/02 10:29:12;;;;;;;9.35;4.95;;;17.80;99.90;;;;;;1904098;75;21621;-76
2022/10/02 10:32:37;;;;;;;9.90;6.20;;;17.90;99.90;;;;;;1894452;75;21124;-75
2022/10/02 10:35:55;;;;;;;7.00;6.30;;;17.90;99.90;;;;;;1916118;75;21121;-75
2022/10/02 10:38:57;;;;;;;7.17;5.60;;;18.00;99.90;;;;;;1894988;75;21122;-76
2022/10/02 10:45:41;;;;;;;4.40;4.00;;;18.10;99.90;;;;;;1914531;72;22835;-78
2022/10/02 10:48:44;;;;;;;4.05;3.75;;;18.20;99.90;;;;;;1903961;75;21116;-75
2022/10/02 10:54:47;;;;;;;3.90;3.60;;;18.20;99.90;;;;;;1933377;72;22211;-75
2022/10/02 11:00:28;;;;;;;3.05;2.83;;;18.30;99.90;;;;;;1957020;72;22287;-76
2022/10/02 11:06:38;;;;;;;3.45;3.15;;;18.40;99.90;;;;;;1958073;72;22178;-76
2022/10/02 11:10:15;;;;;;;3.40;2.87;;;18.40;99.90;;;;;;1922669;73;21056;-76
2022/10/02 11:16:17;;;;;;;4.03;3.02;;;18.60;99.90;;;;;;1951476;72;22149;-75
2022/10/02 11:22:35;;;;;;;4.87;3.10;;;18.80;99.90;;;;;;1945240;72;22132;-75
2022/10/02 11:25:42;;;;;;;3.08;2.77;;;18.90;99.90;;;;;;1943644;73;21107;-76
2022/10/02 11:31:25;;;;;;;5.20;2.40;;;19.10;99.90;;;;;;1946419;72;22205;-75
2022/10/02 11:37:19;;;;;;;3.00;2.30;;;19.30;99.90;;;;;;1960937;72;22159;-75
2022/10/02 11:40:20;;;;;;;3.62;2.25;;;19.30;99.90;;;;;;1940209;73;21113;-75
2022/10/02 11:43:27;;;;;;;1.82;1.72;;;19.40;99.90;;;;;;1917371;75;21068;-75
2022/10/02 11:46:36;;;;;;;2.60;2.00;;;19.50;99.90;;;;;;1923537;73;21083;-75
2022/10/02 11:55:48;;;;;;;1.80;1.60;;;19.80;99.90;;;;;;1956213;72;22190;-74
2022/10/02 12:01:28;;;;;;;2.75;1.40;;;20.00;99.90;;;;;;1944464;72;20125;-74
2022/10/02 12:04:29;;;;;;;2.42;1.47;;;20.10;99.90;;;;;;1903082;73;21066;-74
2022/10/02 12:10:29;;;;;;;3.50;1.40;;;20.20;99.90;;;;;;1934654;72;22211;-75
2022/10/02 12:16:33;;;;;;;1.82;1.57;;;20.40;99.90;;;;;;1929579;72;22162;-75
2022/10/02 12:28:36;;;;;;;2.15;1.90;;;20.70;99.90;;;;;;1896038;75;21183;-76
2022/10/02 12:34:12;;;;;;;2.08;1.70;;;21.10;99.90;;;;;;1942981;72;22622;-76
2022/10/02 12:37:07;;;;;;;3.37;2.12;;;21.20;99.90;;;;;;1926449;73;21165;-76
2022/10/02 12:40:01;;;;;;;2.58;2.15;;;21.20;99.90;;;;;;1925051;73;21090;-75
2022/10/02 12:43:39;;;;;;;1.60;1.30;;;21.30;99.90;;;;;;1917348;75;21134;-75
2022/10/02 12:46:49;;;;;;;1.70;1.30;;;21.40;99.90;;;;;;1935742;73;21115;-75
2022/10/02 12:49:52;;;;;;;0.80;0.80;;;21.40;99.90;;;;;;1916842;73;21131;-75
2022/10/02 12:52:59;;;;;;;2.08;1.30;;;21.40;99.90;;;;;;1933375;73;21633;-75
2022/10/02 12:56:19;;;;;;;1.98;1.42;;;21.40;99.90;;;;;;1922272;73;21081;-75
2022/10/02 12:59:15;;;;;;;1.65;1.40;;;21.40;99.90;;;;;;1922383;73;21070;-75
2022/10/02 13:05:50;;;;;;;1.62;1.30;;;21.60;99.90;;;;;;1949923;72;22114;-75
2022/10/02 13:08:59;;;;;;;2.40;1.20;;;21.70;99.90;;;;;;1889200;75;21102;-76
2022/10/02 13:12:15;;;;;;;1.20;1.10;;;21.70;99.90;;;;;;1895273;75;21076;-75
2022/10/02 13:15:28;;;;;;;2.70;1.45;;;21.70;99.90;;;;;;1902838;73;21071;-76
2022/10/02 13:18:33;;;;;;;1.57;1.10;;;21.70;99.90;;;;;;1885317;73;21173;-76
2022/10/02 13:21:28;;;;;;;2.02;1.67;;;21.80;99.90;;;;;;1887309;75;21163;-76
2022/10/02 13:24:34;;;;;;;1.80;1.37;;;21.90;99.90;;;;;;1900607;75;21483;-76
2022/10/02 13:30:16;;;;;;;1.00;0.90;;;22.00;99.90;;;;;;1933561;72;22170;-75
2022/10/02 13:33:17;;;;;;;0.80;0.70;;;22.10;99.90;;;;;;1907799;74;21220;-75
2022/10/02 13:36:17;;;;;;;0.95;0.80;;;22.20;99.90;;;;;;1902287;75;21562;-75
2022/10/02 13:39:16;;;;;;;2.20;1.05;;;22.20;99.90;;;;;;1890615;75;21059;-75
2022/10/02 13:45:18;;;;;;;1.65;1.00;;;22.40;99.90;;;;;;1952109;72;22278;-76
2022/10/02 13:48:13;;;;;;;1.22;1.10;;;22.50;99.90;;;;;;1915666;73;21150;-77
2022/10/02 13:51:09;;;;;;;1.15;1.05;;;22.50;99.90;;;;;;1917200;75;21598;-75
2022/10/02 13:54:14;;;;;;;4.08;1.27;;;22.50;99.90;;;;;;1913300;73;21056;-76
2022/10/02 13:57:10;;;;;;;1.05;0.95;;;22.50;99.90;;;;;;1917381;73;21099;-76
2022/10/02 14:00:08;;;;;;;1.52;0.93;;;22.60;99.90;;;;;;1922448;73;21106;-76
2022/10/02 14:05:50;;;;;;;1.35;0.88;;;22.80;99.90;;;;;;1938552;72;22134;-76
2022/10/02 14:11:33;;;;;;;1.00;0.90;;;23.40;99.90;;;;;;1943226;72;22246;-75
2022/10/02 14:14:34;;;;;;;1.47;0.62;;;25.10;99.90;;;;;;1911271;74;21149;-77
2022/10/02 14:17:30;;;;;;;1.25;0.80;;;27.20;99.90;;;;;;1905717;73;21098;-77
2022/10/02 14:20:34;;;;;;;11.05;1.65;;;28.60;99.90;;;;;;1905392;74;21593;-76
2022/10/02 14:23:34;;;;;;;9.35;1.85;;;29.50;99.90;;;;;;1904764;74;21067;-76
2022/10/02 14:26:33;;;;;;;1.17;0.68;;;29.90;99.90;;;;;;1904862;74;21110;-76
2022/10/02 14:29:44;;;;;;;1.30;0.40;;;30.20;99.90;;;;;;1911300;74;21171;-76
2022/10/02 14:33:00;;;;;;;1.25;0.40;;;29.90;99.90;;;;;;1904897;74;21131;-76
2022/10/02 14:35:56;;;;;;;0.60;0.35;;;30.20;99.90;;;;;;1904862;74;21095;-75
2022/10/02 14:38:59;;;;;;;0.62;0.40;;;29.00;99.90;;;;;;1905107;74;21172;-75
2022/10/02 14:42:13;;;;;;;2.87;0.40;;;27.10;99.90;;;;;;1907989;73;21070;-75
2022/10/02 14:45:34;;;;;;;0.50;0.30;;;25.80;99.90;;;;;;1919815;74;21518;-77
2022/10/02 14:48:40;;;;;;;1.67;0.45;;;25.20;99.90;;;;;;1904735;73;21202;-76
2022/10/02 14:52:01;;;;;;;0.95;0.47;;;24.80;99.90;;;;;;1904869;74;21164;-76
2022/10/02 14:55:09;;;;;;;0.75;0.40;;;24.60;99.90;;;;;;1909481;73;21103;-75
2022/10/02 14:58:27;;;;;;;0.50;0.40;;;24.30;99.90;;;;;;1913039;74;21430;-76
2022/10/02 15:01:22;;;;;;;0.53;0.40;;;24.80;99.90;;;;;;1904718;74;21325;-76
2022/10/02 15:07:07;;;;;;;3.62;0.57;;;27.50;99.90;;;;;;1955771;72;20111;-76
2022/10/02 15:10:04;;;;;;;0.85;0.40;;;28.30;99.90;;;;;;1885961;74;21146;-76
2022/10/02 15:12:58;;;;;;;1.50;0.40;;;28.50;99.90;;;;;;1902682;75;21105;-75
2022/10/02 15:17:53;;;;;;;0.90;0.47;;;28.60;99.90;;;;;;1907541;75;21055;-75
2022/10/02 15:21:31;;;;;;;1.32;0.40;;;28.50;99.90;;;;;;1941980;72;22178;-76
2022/10/02 15:24:34;;;;;;;0.85;0.35;;;27.90;99.90;;;;;;1913193;74;21110;-76
2022/10/02 15:27:27;;;;;;;1.50;0.60;;;27.60;99.90;;;;;;1895940;75;21536;-76
2022/10/02 15:30:21;;;;;;;0.62;0.40;;;27.10;99.90;;;;;;1890102;75;21059;-76
2022/10/02 15:33:19;;;;;;;0.50;0.50;;;26.70;99.90;;;;;;1888934;73;21567;-76
2022/10/02 15:36:23;;;;;;;4.37;1.35;;;26.50;99.90;;;;;;1898380;75;21118;-76
2022/10/02 15:39:41;;;;;;;1.40;0.57;;;26.40;99.90;;;;;;1911177;75;21043;-84
2022/10/02 15:45:58;;;;;;;0.98;0.40;;;25.80;99.90;;;;;;1938685;72;22157;-83
2022/10/02 15:49:04;;;;;;;0.33;0.33;;;25.50;99.90;;;;;;1899130;75;21130;-84
2022/10/02 15:52:04;;;;;;;0.68;0.40;;;25.40;99.90;;;;;;1883000;75;21228;-84
2022/10/02 15:54:59;;;;;;;1.50;0.47;;;25.30;99.90;;;;;;1912910;75;21571;-83
2022/10/02 16:01:07;;;;;;;0.72;0.40;;;25.10;99.90;;;;;;1928347;72;22304;-84
2022/10/02 16:06:52;;;;;;;0.95;0.60;;;24.40;99.90;;;;;;1942994;72;22223;-83
2022/10/02 16:09:50;;;;;;;1.35;0.50;;;23.90;99.90;;;;;;1932526;73;21110;-76
2022/10/02 16:15:40;;;;;;;0.72;0.40;;;23.40;99.90;;;;;;1935446;72;22452;-76
2022/10/02 16:18:35;;;;;;;;;;;23.20;99.90;;;;;;1890808;75;21099;-75
2022/10/02 16:21:59;;;;;;;2.30;0.50;;;23.00;99.90;;;;;;1912691;75;20216;-75
2022/10/02 16:30:36;;;;;;;0.57;0.40;;;22.50;99.90;;;;;;1950994;72;22138;-76
2022/10/02 16:33:30;;;;;;;2.10;0.60;;;22.40;99.90;;;;;;1883556;75;21561;-75
2022/10/02 16:36:30;;;;;;;0.75;0.35;;;22.40;99.90;;;;;;1887148;75;21160;-75
2022/10/02 16:39:35;;;;;;;1.72;0.47;;;22.30;99.90;;;;;;1890754;75;21382;-75
2022/10/02 16:42:34;;;;;;;1.10;0.57;;;22.30;99.90;;;;;;1902574;75;21095;-76
2022/10/02 16:45:55;;;;;;;1.02;0.70;;;22.20;99.90;;;;;;1884326;75;21647;-76
2022/10/02 16:51:45;;;;;;;1.47;0.60;;;21.90;99.90;;;;;;1950887;72;22161;-76
2022/10/02 16:54:43;;;;;;;2.10;0.70;;;21.80;99.90;;;;;;1892898;75;21112;-75
2022/10/02 17:00:24;;;;;;;1.90;0.50;;;21.50;99.90;;;;;;1945855;72;22279;-75
2022/10/02 17:03:22;;;;;;;0.82;0.50;;;21.40;99.90;;;;;;1891418;73;21099;-75
2022/10/02 17:06:18;;;;;;;1.17;0.65;;;21.30;99.90;;;;;;1901590;75;21062;-75
2022/10/02 17:09:13;;;;;;;1.50;1.20;;;21.10;99.90;;;;;;1916748;75;21109;-75
2022/10/02 17:12:09;;;;;;;1.67;0.80;;;21.00;99.90;;;;;;1894413;75;21129;-75
2022/10/02 17:17:48;;;;;;;2.35;0.70;;;20.80;99.90;;;;;;1944039;72;22194;-75
2022/10/02 17:20:44;;;;;;;1.02;0.60;;;20.60;99.90;;;;;;1902644;74;21165;-76
2022/10/02 17:26:22;;;;;;;2.22;0.60;;;20.40;99.90;;;;;;1945760;72;22209;-83
2022/10/02 17:29:16;;;;;;;2.40;2.00;;;20.30;99.90;;;;;;1896200;75;21116;-83
2022/10/02 17:32:09;;;;;;;2.45;1.32;;;20.30;99.90;;;;;;1891278;75;21206;-82
2022/10/02 17:38:04;;;;;;;3.80;2.35;;;20.10;99.90;;;;;;1960695;72;22177;-81
2022/10/02 17:43:43;;;;;;;4.92;2.95;;;19.80;99.90;;;;;;1946265;72;22572;-72
2022/10/02 17:46:50;;;;;;;5.22;3.40;;;19.70;99.90;;;;;;1904542;75;21048;-73
2022/10/02 17:49:58;;;;;;;4.65;2.85;;;19.50;99.90;;;;;;1899681;74;21055;-73
2022/10/02 17:58:55;;;;;;;6.00;3.70;;;19.30;99.90;;;;;;1941192;72;22171;-72
2022/10/02 18:01:51;;;;;;;7.78;5.00;;;19.30;99.90;;;;;;1890720;75;21123;-72
2022/10/02 18:04:51;;;;;;;3.77;3.40;;;19.20;99.90;;;;;;1891916;74;21069;-72
2022/10/02 18:07:48;;;;;;;5.78;3.70;;;19.10;99.90;;;;;;1899515;75;21101;-72
2022/10/02 18:10:41;;;;;;;;;;;19.10;99.90;;;;;;1907475;75;21138;-72
2022/10/02 18:13:43;;;;;;;4.92;3.75;;;18.90;99.90;;;;;;1864439;76;20161;-76
2022/10/02 18:16:49;;;;;;;5.75;2.80;;;18.90;99.90;;;;;;1868505;76;21115;-75
2022/10/02 18:19:51;;;;;;;4.50;2.65;;;18.80;99.90;;;;;;1884113;74;21150;-75
2022/10/02 18:25:36;;;;;;;4.78;3.00;;;18.80;99.90;;;;;;1949880;72;22329;-76
2022/10/02 18:31:29;;;;;;;5.53;2.75;;;18.60;99.90;;;;;;1963894;72;20160;-76
2022/10/02 18:37:23;;;;;;;6.10;3.92;;;18.50;99.90;;;;;;1940101;72;22235;-76
2022/10/02 18:40:22;;;;;;;4.00;2.62;;;18.40;99.90;;;;;;1879651;75;21143;-75
2022/10/02 18:43:47;;;;;;;4.00;2.12;;;18.30;99.90;;;;;;1896325;75;21170;-76
2022/10/02 18:46:46;;;;;;;2.98;2.67;;;18.20;99.90;;;;;;1894613;75;21048;-76
2022/10/02 18:49:49;;;;;;;4.75;2.27;;;18.20;99.90;;;;;;1896031;75;21047;-76
2022/10/02 18:52:48;;;;;;;3.55;2.10;;;18.20;99.90;;;;;;1872791;75;21071;-76
2022/10/02 18:56:04;;;;;;;3.05;1.82;;;18.00;99.90;;;;;;1883112;75;21769;-76
2022/10/02 19:01:51;;;;;;;5.53;2.60;;;18.00;99.90;;;;;;1917567;72;27992;-75
2022/10/02 19:05:22;;;;;;;1.87;1.52;;;18.20;99.90;;;;;;1893820;73;21098;-76
2022/10/02 19:08:22;;;;;;;2.02;1.82;;;18.20;99.90;;;;;;1906164;73;21073;-75
2022/10/02 19:11:17;;;;;;;3.15;1.98;;;18.00;99.90;;;;;;1904478;75;21215;-76
2022/10/02 19:14:15;;;;;;;2.92;2.50;;;17.90;99.90;;;;;;1891346;75;21172;-76
2022/10/02 19:17:11;;;;;;;4.53;2.65;;;17.80;99.90;;;;;;1904076;73;21090;-76
2022/10/02 19:20:08;;;;;;;4.97;2.42;;;17.70;99.90;;;;;;1895021;73;21156;-76
2022/10/02 19:22:59;;;;;;;4.78;2.83;;;17.60;99.90;;;;;;1887152;75;21143;-76